Time;durP1;ratioP1;P1;durP2;ratioP2;P2;SDS_P1;SDS_P2;PMS_P1;PMS_P2;Temp;Humidity;BMP_temperature;BMP_pressure;BME280_temperature;BME280_humidity;BME280_pressure;Samples;Min_cycle;Max_cycle;Signal;HPM_P1;HPM_P2
2023/02/27 00:01:04;;;;;;;11.80;6.50;;;;;;;-1.17;80.81;98994.86;105552;1253;74586;-26
2023/02/27 00:03:34;;;;;;;13.30;7.40;;;;;;;-1.27;81.28;98991.77;105598;1257;73960;-26
2023/02/27 00:06:03;;;;;;;14.20;6.60;;;;;;;-1.45;81.73;98993.70;105813;1253;73499;-26
2023/02/27 00:08:33;;;;;;;12.20;6.60;;;;;;;-1.39;81.88;98995.57;105806;1253;62007;-26
2023/02/27 00:11:01;;;;;;;8.40;5.50;;;;;;;-0.89;80.04;98996.08;105926;1257;61888;-26
2023/02/27 00:13:30;;;;;;;14.30;7.10;;;;;;;-0.71;79.28;98993.23;105706;1253;74688;-26
2023/02/27 00:15:59;;;;;;;33.70;15.40;;;;;;;-0.76;79.12;98994.95;105791;1254;76090;-26
2023/02/27 00:18:29;;;;;;;11.80;6.40;;;;;;;-0.77;79.30;98998.73;105852;1253;75166;-26
2023/02/27 00:20:57;;;;;;;9.10;5.80;;;;;;;-0.97;79.86;98998.77;105766;1253;61178;-26
2023/02/27 00:23:26;;;;;;;11.40;6.80;;;;;;;-1.29;80.27;98995.40;105811;1253;61891;-26
2023/02/27 00:26:01;;;;;;;8.10;4.90;;;;;;;-1.38;80.61;98995.19;105882;1256;74594;-26
2023/02/27 00:28:33;;;;;;;10.80;5.90;;;;;;;-0.91;79.13;99000.05;105921;1257;76028;-26
2023/02/27 00:31:03;;;;;;;10.00;5.70;;;;;;;-1.03;78.35;99002.69;105765;1253;74495;-26
2023/02/27 00:33:32;;;;;;;8.90;5.40;;;;;;;-1.22;78.82;99000.79;105725;1253;61430;-26
2023/02/27 00:36:01;;;;;;;12.40;7.00;;;;;;;-1.32;80.02;99001.30;105896;1256;61609;-25
2023/02/27 00:38:30;;;;;;;12.50;7.20;;;;;;;-1.48;80.18;99001.48;105785;1253;74652;-26
2023/02/27 00:40:58;;;;;;;9.00;5.50;;;;;;;-1.51;80.70;98998.35;105824;1254;75814;-26
2023/02/27 00:43:28;;;;;;;10.40;4.80;;;;;;;-1.14;79.68;99002.07;105716;1253;74526;-26
2023/02/27 00:45:57;;;;;;;8.30;5.00;;;;;;;-1.04;78.68;99001.73;105725;1256;61599;-26
2023/02/27 00:48:25;;;;;;;7.20;4.30;;;;;;;-1.15;78.12;99001.91;105903;1253;61153;-26
2023/02/27 00:50:54;;;;;;;8.80;5.60;;;;;;;-1.33;78.30;99003.55;105757;1253;74553;-26
2023/02/27 00:53:22;;;;;;;7.80;5.50;;;;;;;-1.57;78.72;98999.04;105928;1258;76281;-26
2023/02/27 00:55:51;;;;;;;8.90;3.80;;;;;;;-1.61;79.61;99000.36;105918;1253;74482;-26
2023/02/27 00:58:19;;;;;;;8.70;5.20;;;;;;;-1.69;80.13;98999.44;105737;1253;61643;-26
2023/02/27 01:00:48;;;;;;;8.40;5.10;;;;;;;-1.17;78.64;98999.43;105602;1258;61817;-26
2023/02/27 01:03:19;;;;;;;6.40;4.60;;;;;;;-0.81;76.70;99004.15;105698;1256;72821;-26
2023/02/27 01:05:48;;;;;;;8.90;5.10;;;;;;;-0.87;76.61;99006.59;105683;1255;75987;-26
2023/02/27 01:08:19;;;;;;;5.20;3.80;;;;;;;-1.00;76.49;99009.43;105746;1253;74444;-26
2023/02/27 01:10:53;;;;;;;6.90;4.30;;;;;;;-1.30;77.28;99012.64;105717;1253;61104;-26
2023/02/27 01:13:23;;;;;;;5.50;3.30;;;;;;;-1.53;78.05;99011.36;105499;1253;61820;-26
2023/02/27 01:15:52;;;;;;;16.70;5.70;;;;;;;-1.62;78.66;99016.23;105786;1253;73484;-26
2023/02/27 01:18:21;;;;;;;8.30;5.00;;;;;;;-1.67;79.15;99018.42;105636;1259;75788;-26
2023/02/27 01:20:53;;;;;;;8.20;4.70;;;;;;;-1.31;77.71;99021.38;105580;1253;74470;-26
2023/02/27 01:23:22;;;;;;;7.50;4.80;;;;;;;-1.19;77.52;99024.20;105650;1254;61939;-26
2023/02/27 01:25:50;;;;;;;8.50;4.80;;;;;;;-1.12;77.04;99028.23;105929;1256;61884;-26
2023/02/27 01:28:20;;;;;;;6.90;4.10;;;;;;;-1.03;76.90;99026.92;105623;1253;74888;-26
2023/02/27 01:30:49;;;;;;;6.60;4.00;;;;;;;-1.30;77.94;99028.13;105682;1258;76041;-26
2023/02/27 01:33:17;;;;;;;21.70;9.70;;;;;;;-1.48;78.66;99027.89;105958;1253;74476;-26
2023/02/27 01:35:51;;;;;;;9.00;5.50;;;;;;;-1.57;78.94;99028.19;105683;1258;61897;-26
2023/02/27 01:38:20;;;;;;;5.80;4.10;;;;;;;-1.58;79.04;99029.38;105546;1255;61859;-26
2023/02/27 01:40:48;;;;;;;14.40;7.40;;;;;;;-1.10;77.98;99034.98;105609;1253;74814;-26
2023/02/27 01:43:18;;;;;;;25.10;11.70;;;;;;;-1.08;77.35;99036.80;105687;1258;76222;-26
2023/02/27 01:45:48;;;;;;;8.40;4.90;;;;;;;-1.24;77.71;99036.99;105256;1253;74627;-26
2023/02/27 01:48:27;;;;;;;7.20;4.70;;;;;;;-1.38;78.27;99040.50;105712;1253;61431;-26
2023/02/27 01:51:04;;;;;;;8.80;4.70;;;;;;;-1.59;78.57;99044.08;105412;1260;61055;-26
2023/02/27 01:53:34;;;;;;;11.70;4.80;;;;;;;-1.74;78.82;99043.52;105365;1253;75593;-26
2023/02/27 01:56:06;;;;;;;6.60;3.90;;;;;;;-1.48;78.29;99047.98;105689;1253;75004;-26
2023/02/27 01:58:36;;;;;;;5.70;3.60;;;;;;;-1.20;76.38;99048.23;105657;1254;73892;-26
2023/02/27 02:01:04;;;;;;;7.30;4.80;;;;;;;-1.19;75.77;99050.97;105351;1258;61196;-26
2023/02/27 02:03:42;;;;;;;6.90;4.20;;;;;;;-1.19;76.26;99053.00;105589;1259;62126;-26
2023/02/27 02:06:11;;;;;;;9.40;5.50;;;;;;;-1.41;76.81;99053.20;105584;1253;75756;-26
2023/02/27 02:08:42;;;;;;;8.20;5.00;;;;;;;-1.51;77.45;99054.71;105700;1253;76107;-26
2023/02/27 02:11:12;;;;;;;25.60;13.40;;;;;;;-1.63;77.93;99058.13;105650;1253;74597;-26
2023/02/27 02:13:40;;;;;;;14.50;7.70;;;;;;;-1.52;77.56;99059.33;105614;1258;62819;-26
2023/02/27 02:16:48;;;;;;;16.90;9.50;;;;;;;-1.02;75.63;99064.54;105693;1253;61029;-26
2023/02/27 02:19:49;;;;;;;16.40;10.00;;;;;;;-1.18;74.37;99062.16;105523;1255;75404;-26
2023/02/27 02:22:25;;;;;;;9.00;5.10;;;;;;;-1.31;75.07;99061.73;105696;1253;76156;-26
2023/02/27 02:25:27;;;;;;;17.50;10.10;;;;;;;-1.39;75.44;99065.05;105768;1253;73161;-26
2023/02/27 02:28:14;;;;;;;8.90;5.10;;;;;;;-1.57;76.35;99067.17;105777;1253;61114;-26
2023/02/27 02:31:13;;;;;;;10.60;6.50;;;;;;;-1.67;76.79;99067.46;105658;1253;61871;-26
2023/02/27 02:34:07;;;;;;;8.90;5.20;;;;;;;-1.54;76.06;99069.27;105698;1259;74747;-26
2023/02/27 02:36:59;;;;;;;9.50;6.60;;;;;;;-1.29;72.50;99069.14;105695;1258;75041;-26
2023/02/27 02:39:40;;;;;;;15.20;9.50;;;;;;;-0.95;71.24;99076.22;105556;1253;74393;-26
2023/02/27 02:42:14;;;;;;;8.00;5.30;;;;;;;-1.34;71.06;99073.75;105326;1259;61303;-27
2023/02/27 02:44:55;;;;;;;7.30;4.70;;;;;;;-1.53;71.62;99080.48;105299;1253;61160;-26
2023/02/27 02:48:11;;;;;;;7.00;4.50;;;;;;;-1.75;72.01;99084.57;105307;1253;73987;-26
2023/02/27 02:51:40;;;;;;;6.20;3.70;;;;;;;-1.75;72.80;99091.87;105039;1262;76096;-26
2023/02/27 02:54:16;;;;;;;7.10;4.10;;;;;;;-1.95;73.72;99096.38;104447;1268;74427;-26
2023/02/27 02:57:14;;;;;;;5.70;3.70;;;;;;;-2.06;73.64;99103.14;105100;1259;61096;-26
2023/02/27 02:59:59;;;;;;;4.40;2.80;;;;;;;-2.09;73.33;99107.48;105311;1260;61162;-26
2023/02/27 03:02:30;;;;;;;5.10;2.50;;;;;;;-1.56;71.56;99111.40;105199;1265;74145;-26
2023/02/27 03:05:04;;;;;;;5.20;3.10;;;;;;;-1.32;70.88;99117.31;104860;1259;75903;-26
2023/02/27 03:07:33;;;;;;;4.40;3.20;;;;;;;-1.37;70.77;99116.24;105100;1262;74350;-26
2023/02/27 03:10:09;;;;;;;4.60;2.60;;;;;;;-1.80;71.49;99110.73;105249;1262;63000;-26
2023/02/27 03:12:40;;;;;;;3.90;2.60;;;;;;;-1.86;71.32;99111.45;105231;1267;62197;-25
2023/02/27 03:15:16;;;;;;;5.60;3.70;;;;;;;-2.09;72.04;99115.16;104938;1259;74289;-26
2023/02/27 03:18:16;;;;;;;5.70;2.90;;;;;;;-2.18;72.57;99114.04;105042;1262;75924;-26
2023/02/27 03:20:48;;;;;;;7.50;3.30;;;;;;;-2.21;73.37;99118.54;105231;1260;74108;-26
2023/02/27 03:23:26;;;;;;;3.90;2.70;;;;;;;-2.25;73.29;99121.72;105160;1261;63051;-26
2023/02/27 03:25:55;;;;;;;4.20;2.80;;;;;;;-1.90;71.61;99125.16;105221;1260;61577;-26
2023/02/27 03:28:29;;;;;;;3.20;2.50;;;;;;;-1.53;70.80;99131.56;105440;1259;75670;-26
2023/02/27 03:31:30;;;;;;;5.90;2.80;;;;;;;-1.65;71.45;99132.44;105499;1259;75951;-26
2023/02/27 03:34:05;;;;;;;5.80;3.10;;;;;;;-1.73;72.14;99137.77;105737;1258;73514;-26
2023/02/27 03:36:43;;;;;;;4.90;2.90;;;;;;;-1.83;72.01;99139.27;105618;1262;61121;-26
2023/02/27 03:39:12;;;;;;;5.90;2.90;;;;;;;-1.93;71.89;99137.50;105757;1254;62130;-26
2023/02/27 03:41:50;;;;;;;5.00;2.50;;;;;;;-2.08;72.09;99137.77;105618;1254;75315;-26
2023/02/27 03:44:58;;;;;;;3.80;2.40;;;;;;;-2.27;72.89;99145.95;105907;1258;74952;-25
2023/02/27 03:47:27;;;;;;;13.90;5.80;;;;;;;-2.14;73.37;99150.35;105730;1253;74355;-26
2023/02/27 03:49:55;;;;;;;10.30;4.90;;;;;;;-1.73;72.22;99146.80;105822;1259;61147;-26
2023/02/27 03:52:24;;;;;;;9.00;4.90;;;;;;;-1.45;70.99;99149.22;105901;1255;61914;-26
2023/02/27 03:54:58;;;;;;;5.60;3.00;;;;;;;-1.54;70.55;99150.52;105620;1253;75332;-26
2023/02/27 03:57:27;;;;;;;7.10;3.10;;;;;;;-1.70;71.38;99150.60;105602;1258;75307;-26
2023/02/27 03:59:56;;;;;;;6.60;3.20;;;;;;;-1.78;71.93;99149.31;105668;1256;74246;-26
2023/02/27 04:02:26;;;;;;;5.40;3.00;;;;;;;-1.95;72.52;99149.47;105536;1253;61165;-26
2023/02/27 04:04:55;;;;;;;4.70;3.20;;;;;;;-2.11;73.25;99150.43;105556;1263;61832;-25
2023/02/27 04:08:07;;;;;;;4.40;2.90;;;;;;;-2.23;73.51;99146.01;105712;1253;75429;-25
2023/02/27 04:11:06;;;;;;;5.00;3.00;;;;;;;-2.27;74.43;99149.33;105865;1254;76248;-25
2023/02/27 04:13:46;;;;;;;4.50;2.70;;;;;;;-1.83;72.76;99145.38;105509;1254;74205;-25
2023/02/27 04:16:33;;;;;;;4.70;3.10;;;;;;;-1.59;71.87;99147.23;105565;1254;61098;-25
2023/02/27 04:19:20;;;;;;;4.30;3.10;;;;;;;-1.60;71.68;99156.13;105681;1254;62393;-25
2023/02/27 04:22:04;;;;;;;26.90;12.10;;;;;;;-1.81;72.48;99159.80;105707;1262;74655;-25
2023/02/27 04:24:42;;;;;;;32.40;13.40;;;;;;;-1.98;73.37;99164.20;105722;1257;75338;-25
2023/02/27 04:27:14;;;;;;;32.10;14.10;;;;;;;-2.06;73.68;99171.73;105824;1256;74192;-25
2023/02/27 04:29:45;;;;;;;25.80;11.40;;;;;;;-2.26;74.45;99171.27;105685;1257;61272;-25
2023/02/27 04:32:31;;;;;;;21.60;9.00;;;;;;;-2.41;74.96;99177.75;105898;1256;62591;-25
2023/02/27 04:35:25;;;;;;;16.80;8.00;;;;;;;-2.04;74.40;99177.64;105734;1260;75170;-26
2023/02/27 04:38:03;;;;;;;53.30;19.70;;;;;;;-1.74;73.49;99175.09;105885;1259;76201;-25
2023/02/27 04:40:35;;;;;;;39.50;16.70;;;;;;;-1.64;73.34;99180.91;105661;1254;74127;-25
2023/02/27 04:43:03;;;;;;;42.60;19.60;;;;;;;-1.68;73.51;99187.52;105742;1253;61154;-25
2023/02/27 04:45:32;;;;;;;41.40;19.30;;;;;;;-1.81;73.76;99191.64;105633;1260;61977;-25
2023/02/27 04:48:04;;;;;;;17.00;8.60;;;;;;;-2.08;74.39;99194.23;105807;1256;75406;-25
2023/02/27 04:50:39;;;;;;;30.90;14.60;;;;;;;-2.31;75.34;99197.75;105719;1259;76288;-25
2023/02/27 04:53:23;;;;;;;17.30;8.60;;;;;;;-2.29;75.78;99201.59;105687;1260;72515;-25
2023/02/27 04:55:58;;;;;;;37.80;19.90;;;;;;;-1.65;74.49;99201.23;105745;1262;61248;-26
2023/02/27 04:58:35;;;;;;;12.10;6.80;;;;;;;-1.51;72.57;99205.74;105604;1256;61247;-25
2023/02/27 05:01:08;;;;;;;23.90;14.20;;;;;;;-1.43;72.81;99205.52;105696;1253;74656;-25
2023/02/27 05:03:39;;;;;;;10.50;6.10;;;;;;;-1.55;72.71;99209.94;105648;1259;76526;-25
2023/02/27 05:06:08;;;;;;;16.00;9.40;;;;;;;-1.70;73.67;99214.48;105742;1257;74180;-25
2023/02/27 05:09:19;;;;;;;14.40;7.10;;;;;;;-2.04;74.72;99218.28;105730;1257;61279;-25
2023/02/27 05:11:58;;;;;;;10.60;6.50;;;;;;;-2.17;75.14;99225.62;105660;1259;61802;-25
2023/02/27 05:14:32;;;;;;;16.90;8.90;;;;;;;-2.30;75.87;99231.07;105717;1258;75327;-25
2023/02/27 05:17:17;;;;;;;28.20;13.30;;;;;;;-1.92;75.00;99229.17;105648;1254;75968;-25
2023/02/27 05:19:45;;;;;;;23.60;12.00;;;;;;;-1.65;73.75;99238.67;105663;1254;74948;-25
2023/02/27 05:22:42;;;;;;;18.60;11.00;;;;;;;-1.73;73.58;99241.42;105900;1254;61267;-25
2023/02/27 05:25:32;;;;;;;9.50;5.90;;;;;;;-1.85;74.24;99241.79;105924;1256;62032;-25
2023/02/27 05:28:08;;;;;;;9.60;6.50;;;;;;;-1.86;74.39;99248.45;105734;1259;75035;-25
2023/02/27 05:30:43;;;;;;;8.20;4.50;;;;;;;-2.18;75.11;99253.54;105683;1253;75791;-25
2023/02/27 05:33:20;;;;;;;20.40;10.70;;;;;;;-2.22;76.00;99258.73;105722;1256;74907;-25
2023/02/27 05:36:02;;;;;;;9.10;6.00;;;;;;;-2.21;76.30;99261.94;105823;1253;61760;-25
2023/02/27 05:38:38;;;;;;;16.20;8.70;;;;;;;-1.71;74.55;99262.32;105855;1257;61927;-25
2023/02/27 05:41:12;;;;;;;18.50;9.00;;;;;;;-1.55;73.81;99260.19;105680;1260;75747;-25
2023/02/27 05:44:09;;;;;;;34.40;15.30;;;;;;;-1.86;74.13;99262.89;105599;1260;75893;-25
2023/02/27 05:46:40;;;;;;;23.00;10.30;;;;;;;-1.99;74.43;99267.36;105697;1253;73261;-25
2023/02/27 05:49:13;;;;;;;42.40;13.60;;;;;;;-2.03;74.94;99275.11;105608;1259;61138;-25
2023/02/27 05:51:42;;;;;;;22.00;7.20;;;;;;;-2.19;75.00;99275.84;105898;1256;61179;-26
2023/02/27 05:54:49;;;;;;;12.20;5.20;;;;;;;-2.23;75.13;99285.30;105643;1260;75272;-25
2023/02/27 05:57:24;;;;;;;57.80;26.10;;;;;;;-2.13;74.19;99288.96;105839;1265;75942;-25
2023/02/27 05:59:53;;;;;;;31.60;18.50;;;;;;;-1.94;73.44;99286.27;105536;1251;74488;-25
2023/02/27 06:02:21;;;;;;;114.30;65.10;;;;;;;-1.58;72.79;99288.54;105609;1254;61422;-25
2023/02/27 06:04:50;;;;;;;667.00;421.30;;;;;;;-1.60;72.91;99296.09;105603;1259;61661;-25
2023/02/27 06:07:18;;;;;;;199.90;117.50;;;;;;;-1.77;73.22;99296.20;105895;1253;75510;-25
2023/02/27 06:09:48;;;;;;;53.10;36.60;;;;;;;-1.89;73.53;99293.79;105921;1260;76146;-25
2023/02/27 06:12:18;;;;;;;12.10;10.10;;;;;;;-1.99;73.55;99292.19;105780;1257;74122;-25
2023/02/27 06:14:46;;;;;;;12.30;9.10;;;;;;;-2.23;74.25;99292.28;105729;1255;61205;-26
2023/02/27 06:17:15;;;;;;;27.20;13.00;;;;;;;-2.09;74.56;99294.66;105944;1256;61832;-25
2023/02/27 06:19:44;;;;;;;76.80;31.40;;;;;;;-2.08;74.23;99294.95;105899;1256;75365;-25
2023/02/27 06:22:12;;;;;;;64.20;27.50;;;;;;;-1.55;72.93;99289.30;105639;1254;75882;-25
2023/02/27 06:24:41;;;;;;;13.70;7.30;;;;;;;-1.48;72.02;99294.90;105765;1256;74465;-25
2023/02/27 06:27:09;;;;;;;20.10;9.50;;;;;;;-1.47;71.66;99295.02;105790;1254;61879;-26
2023/02/27 06:29:38;;;;;;;12.90;5.70;;;;;;;-1.57;71.94;99307.08;105864;1254;61980;-25
2023/02/27 06:32:06;;;;;;;15.30;7.90;;;;;;;-1.73;71.67;99308.02;105765;1255;75649;-25
2023/02/27 06:34:35;;;;;;;5.60;3.60;;;;;;;-1.97;72.40;99307.95;105918;1257;76028;-25
2023/02/27 06:37:03;;;;;;;21.80;14.00;;;;;;;-2.04;73.17;99306.42;105902;1256;74427;-25
2023/02/27 06:39:32;;;;;;;43.90;25.40;;;;;;;-2.18;73.39;99303.54;105586;1255;61239;-25
2023/02/27 06:42:01;;;;;;;13.00;6.70;;;;;;;-2.11;74.29;99306.77;105571;1266;62115;-25
2023/02/27 06:44:29;;;;;;;34.70;26.70;;;;;;;-1.85;73.34;99314.79;105756;1255;75507;-25
2023/02/27 06:46:58;;;;;;;8.10;4.70;;;;;;;-1.53;71.77;99314.95;105760;1255;75907;-25
2023/02/27 06:49:26;;;;;;;57.60;25.20;;;;;;;-1.22;70.17;99314.42;105537;1258;73503;-25
2023/02/27 06:51:56;;;;;;;66.50;36.10;;;;;;;-1.19;70.33;99314.17;105627;1256;61005;-25
2023/02/27 06:54:24;;;;;;;61.00;31.50;;;;;;;-1.44;69.95;99318.61;105732;1256;61860;-25
2023/02/27 06:56:53;;;;;;;495.30;209.20;;;;;;;-1.82;70.32;99315.05;105574;1256;75606;-25
2023/02/27 06:59:22;;;;;;;110.80;45.60;;;;;;;-1.90;70.23;99320.69;105538;1260;76229;-25
2023/02/27 07:01:50;;;;;;;82.60;43.10;;;;;;;-2.12;71.05;99314.95;105640;1257;74056;-25
2023/02/27 07:04:19;;;;;;;115.00;48.10;;;;;;;-2.14;71.19;99315.02;105922;1256;61102;-25
2023/02/27 07:06:48;;;;;;;84.60;37.50;;;;;;;-1.88;71.04;99319.80;105788;1256;61421;-25
2023/02/27 07:09:39;;;;;;;76.40;36.50;;;;;;;-2.05;71.08;99318.88;105771;1254;75546;-25
2023/02/27 07:12:08;;;;;;;87.50;33.40;;;;;;;-2.01;71.20;99318.09;105753;1259;76214;-25
2023/02/27 07:14:40;;;;;;;23.40;11.60;;;;;;;-2.01;71.18;99319.79;105700;1257;74474;-25
2023/02/27 07:17:09;;;;;;;22.50;15.10;;;;;;;-2.18;71.07;99320.56;105623;1254;61161;-25
2023/02/27 07:19:38;;;;;;;37.70;16.40;;;;;;;-2.28;70.67;99327.61;105821;1254;61684;-25
2023/02/27 07:22:08;;;;;;;24.80;16.80;;;;;;;-2.33;70.64;99326.70;105696;1254;75420;-25
2023/02/27 07:24:36;;;;;;;18.40;8.70;;;;;;;-2.13;71.19;99335.07;105830;1265;76208;-25
2023/02/27 07:27:05;;;;;;;23.10;12.00;;;;;;;-1.89;69.77;99333.63;105589;1256;74332;-25
2023/02/27 07:29:34;;;;;;;37.40;26.50;;;;;;;-1.57;69.16;99336.52;105681;1257;61112;-25
2023/02/27 07:32:03;;;;;;;13.40;8.30;;;;;;;-1.56;68.87;99341.29;105884;1257;61624;-25
2023/02/27 07:34:33;;;;;;;12.40;7.50;;;;;;;-1.76;68.95;99342.30;105891;1255;75350;-25
2023/02/27 07:37:07;;;;;;;243.50;105.00;;;;;;;-1.79;68.99;99346.63;105788;1255;75794;-25
2023/02/27 07:39:36;;;;;;;145.00;57.90;;;;;;;-1.95;69.28;99344.81;105722;1255;74184;-25
2023/02/27 07:42:04;;;;;;;92.10;40.80;;;;;;;-1.95;69.58;99346.86;105698;1257;61103;-25
2023/02/27 07:44:34;;;;;;;25.20;12.70;;;;;;;-1.95;69.86;99347.71;105771;1263;61782;-25
2023/02/27 07:54:41;;;;;;;30.40;16.20;;;;;;;-1.86;69.37;99352.77;102711;1289;600175;-26
2023/02/27 07:57:10;;;;;;;14.60;8.10;;;;;;;-1.80;69.66;99356.71;105107;1267;61068;-26
2023/02/27 07:59:39;;;;;;;7.90;5.10;;;;;;;-1.67;70.39;99357.20;105132;1265;61856;-26
2023/02/27 08:02:09;;;;;;;10.70;6.40;;;;;;;-1.40;68.49;99352.77;105093;1267;73746;-26
2023/02/27 08:04:38;;;;;;;35.40;17.00;;;;;;;-1.02;67.50;99353.05;104836;1267;75871;-26
2023/02/27 08:07:07;;;;;;;11.60;6.70;;;;;;;-1.21;66.95;99353.91;105123;1267;74162;-27
2023/02/27 08:09:35;;;;;;;86.50;38.20;;;;;;;-1.26;67.78;99353.91;103812;1266;61199;-25
2023/02/27 08:12:07;;;;;;;38.40;19.80;;;;;;;-1.50;68.66;99354.55;105234;1264;62036;-25
2023/02/27 08:14:35;;;;;;;29.40;19.30;;;;;;;-1.55;68.61;99359.81;105254;1263;73581;-25
2023/02/27 08:17:07;;;;;;;17.20;10.70;;;;;;;-1.70;69.14;99365.31;105095;1264;76239;-25
2023/02/27 08:19:36;;;;;;;60.10;31.30;;;;;;;-1.77;69.76;99368.54;105306;1260;74428;-27
2023/02/27 08:29:42;;;;;;;8.40;5.30;;;;;;;-1.73;70.61;99375.91;102640;1292;600336;-26
2023/02/27 08:32:10;;;;;;;42.60;23.30;;;;;;;-1.70;70.81;99381.98;104867;1271;61145;-26
2023/02/27 08:34:40;;;;;;;24.10;15.70;;;;;;;-1.86;70.77;99380.70;104914;1267;61054;-26
2023/02/27 08:37:08;;;;;;;7.20;4.90;;;;;;;-1.83;71.26;99387.44;104875;1267;72703;-26
2023/02/27 08:39:39;;;;;;;9.40;5.50;;;;;;;-1.52;70.50;99389.17;104759;1267;76215;-26
2023/02/27 08:42:08;;;;;;;14.70;10.80;;;;;;;-1.11;68.68;99395.39;104144;1267;2030396;-26
2023/02/27 08:44:37;;;;;;;8.80;5.00;;;;;;;-1.40;68.82;99393.96;104951;1266;61269;-27
2023/02/27 08:47:05;;;;;;;8.70;5.10;;;;;;;-1.48;69.14;99398.43;105176;1266;61163;-24
2023/02/27 08:49:33;;;;;;;14.70;8.70;;;;;;;-1.48;69.19;99399.30;105095;1269;73867;-27
2023/02/27 08:52:04;;;;;;;32.50;19.50;;;;;;;-1.60;69.14;99402.48;105182;1264;76311;-26
2023/02/27 08:54:32;;;;;;;14.40;7.00;;;;;;;-1.50;69.82;99406.68;105069;1264;75425;-25
2023/02/27 08:57:00;;;;;;;9.30;6.00;;;;;;;-1.41;69.41;99408.84;104947;1264;61016;-26
2023/02/27 08:59:30;;;;;;;6.00;3.10;;;;;;;-1.36;69.38;99415.02;105017;1267;61593;-24
2023/02/27 09:01:58;;;;;;;38.50;21.00;;;;;;;-1.33;69.51;99413.89;105876;1254;74832;-24
2023/02/27 09:04:28;;;;;;;7.30;5.30;;;;;;;-1.46;69.62;99419.67;105851;1256;75199;-26
2023/02/27 09:06:57;;;;;;;4.70;2.30;;;;;;;-1.34;69.82;99423.63;105834;1254;73817;-26
2023/02/27 09:09:26;;;;;;;5.10;2.20;;;;;;;-1.50;69.68;99426.77;105910;1254;60992;-26
2023/02/27 09:11:54;;;;;;;4.60;2.40;;;;;;;-1.51;69.87;99428.33;105686;1253;61153;-26
2023/02/27 09:16:21;;;;;;;4.10;1.80;;;;;;;-1.61;69.94;99430.98;102620;1295;599688;-26
2023/02/27 09:18:54;;;;;;;;;;;;;;;-1.75;70.29;99427.39;104874;1267;61343;-26
2023/02/27 09:21:23;;;;;;;4.50;2.60;;;;;;;-1.71;70.30;99427.27;104886;1267;61720;-26
2023/02/27 09:23:52;;;;;;;3.80;2.10;;;;;;;-1.63;70.47;99424.88;104865;1271;72742;-26
2023/02/27 09:26:20;;;;;;;4.60;1.60;;;;;;;-1.54;69.83;99424.14;105102;1267;76234;-26
2023/02/27 09:29:07;;;;;;;3.60;2.50;;;;;;;-1.14;68.10;99426.33;103650;1267;1986514;-26
2023/02/27 09:31:37;;;;;;;2.70;1.70;;;;;;;-0.93;67.36;99425.94;105238;1262;61133;-26
2023/02/27 09:34:05;;;;;;;5.30;2.90;;;;;;;-0.88;67.78;99431.25;105168;1267;61611;-26
2023/02/27 09:36:34;;;;;;;28.90;13.90;;;;;;;-0.85;66.92;99429.08;105205;1263;73678;-26
2023/02/27 09:39:03;;;;;;;82.60;38.70;;;;;;;-1.22;66.53;99428.76;105135;1263;76151;-26
2023/02/27 09:41:56;;;;;;;4.90;2.60;;;;;;;-1.03;67.43;99430.64;105225;1263;73342;-26
2023/02/27 09:44:24;;;;;;;3.50;2.30;;;;;;;-1.12;67.48;99432.77;105148;1263;61113;-26
2023/02/27 09:47:18;;;;;;;4.50;2.60;;;;;;;-1.16;68.16;99433.55;105278;1266;61884;-25
2023/02/27 09:49:51;;;;;;;5.80;3.00;;;;;;;-1.21;68.27;99430.61;105265;1264;74582;-25
2023/02/27 09:52:19;;;;;;;5.50;2.00;;;;;;;-1.19;68.23;99437.70;105238;1263;74651;-25
2023/02/27 09:54:49;;;;;;;32.10;14.20;;;;;;;-1.05;68.36;99442.61;105063;1264;74140;-25
2023/02/27 09:57:22;;;;;;;40.80;15.70;;;;;;;-1.26;67.19;99440.63;105001;1265;61766;-25
2023/02/27 09:59:57;;;;;;;33.00;13.50;;;;;;;-1.19;67.00;99442.49;104992;1260;61064;-25
2023/02/27 10:02:41;;;;;;;40.90;16.70;;;;;;;-1.28;66.76;99437.61;105110;1268;74615;-25
2023/02/27 10:05:12;;;;;;;44.80;16.40;;;;;;;-1.33;67.48;99436.05;105249;1261;75151;-26
2023/02/27 10:08:02;;;;;;;17.60;8.80;;;;;;;-1.37;68.02;99434.27;105232;1263;74183;-25
2023/02/27 10:10:39;;;;;;;58.20;23.60;;;;;;;-1.20;67.80;99434.34;105168;1264;61533;-26
2023/02/27 10:13:49;;;;;;;39.10;16.40;;;;;;;-1.33;67.34;99435.52;105199;1262;61947;-25
2023/02/27 10:16:19;;;;;;;5.40;3.10;;;;;;;-1.28;68.14;99438.63;105009;1262;73251;-26
2023/02/27 10:18:59;;;;;;;52.10;21.10;;;;;;;-1.38;67.83;99443.15;105195;1264;76118;-25
2023/02/27 10:21:39;;;;;;;31.00;14.80;;;;;;;-1.27;68.06;99444.58;105175;1266;72396;-25
2023/02/27 10:24:11;;;;;;;3.30;1.80;;;;;;;-1.26;68.68;99446.76;105118;1269;61930;-26
2023/02/27 10:26:41;;;;;;;7.10;3.90;;;;;;;-1.31;69.37;99445.52;105221;1265;61845;-26
2023/02/27 10:29:40;;;;;;;3.90;2.60;;;;;;;-1.17;68.11;99448.40;105697;1254;75044;-26
2023/02/27 10:32:27;;;;;;;5.30;3.30;;;;;;;-0.66;67.65;99451.94;105678;1254;75978;-26
2023/02/27 10:35:04;;;;;;;7.60;4.40;;;;;;;-0.34;65.93;99452.36;105684;1260;74097;-24
2023/02/27 10:37:33;;;;;;;5.00;3.10;;;;;;;-0.32;66.15;99452.47;105702;1259;61189;-25
2023/02/27 10:40:05;;;;;;;4.30;2.60;;;;;;;-0.38;65.74;99459.30;105708;1254;62237;-26
2023/02/27 10:42:35;;;;;;;6.60;4.10;;;;;;;-0.37;66.49;99455.69;105733;1255;73505;-26
2023/02/27 10:45:04;;;;;;;13.30;6.70;;;;;;;-0.38;66.05;99453.69;105664;1254;75777;-26
2023/02/27 10:47:33;;;;;;;6.90;3.90;;;;;;;-0.63;66.01;99449.29;105694;1254;72899;-26
2023/02/27 10:50:01;;;;;;;6.50;4.50;;;;;;;-0.66;65.72;99453.80;105855;1255;61330;-26
2023/02/27 10:52:30;;;;;;;3.70;2.40;;;;;;;-0.56;66.76;99451.82;105835;1254;61666;-26
2023/02/27 10:54:58;;;;;;;6.70;3.70;;;;;;;-0.62;66.93;99453.34;105726;1254;74539;-26
2023/02/27 10:57:40;;;;;;;17.10;7.70;;;;;;;-0.66;67.70;99447.16;105713;1262;76014;-26
2023/02/27 11:00:45;;;;;;;8.90;4.60;;;;;;;-0.72;67.40;99454.14;105616;1254;72970;-26
2023/02/27 11:03:20;;;;;;;6.70;3.40;;;;;;;-1.03;68.27;99452.62;105497;1260;61205;-26
2023/02/27 11:06:19;;;;;;;6.50;3.80;;;;;;;-0.80;67.96;99457.44;105709;1261;61962;-26
2023/02/27 11:09:11;;;;;;;19.60;8.00;;;;;;;-0.96;67.46;99462.52;105682;1254;74386;-26
2023/02/27 11:11:41;;;;;;;7.50;4.30;;;;;;;-1.06;68.50;99463.95;105715;1254;76178;-26
2023/02/27 11:14:29;;;;;;;5.40;3.40;;;;;;;-1.11;68.65;99463.74;105686;1256;74620;-26
2023/02/27 11:17:01;;;;;;;6.30;3.30;;;;;;;-1.02;68.61;99465.55;105709;1260;61253;-26
2023/02/27 11:19:30;;;;;;;60.10;20.80;;;;;;;-0.86;69.15;99467.31;105722;1253;61144;-26
2023/02/27 11:22:03;;;;;;;36.10;13.90;;;;;;;-0.89;68.98;99471.17;105760;1254;73269;-26
2023/02/27 11:24:32;;;;;;;16.40;7.70;;;;;;;-0.91;68.22;99469.19;105621;1254;75256;-26
2023/02/27 11:27:03;;;;;;;29.70;13.10;;;;;;;-1.04;68.19;99467.64;105414;1254;74264;-26
2023/02/27 11:29:33;;;;;;;53.10;20.70;;;;;;;-0.87;68.80;99467.88;105364;1254;61198;-26
2023/02/27 11:32:12;;;;;;;50.40;21.70;;;;;;;-0.68;67.90;99472.13;105356;1259;61161;-26
2023/02/27 11:34:46;;;;;;;5.30;3.20;;;;;;;-0.13;66.83;99468.62;105532;1254;74628;-25
2023/02/27 11:37:34;;;;;;;53.00;26.70;;;;;;;-0.27;66.78;99470.42;105609;1259;76009;-26
2023/02/27 11:40:08;;;;;;;90.90;53.80;;;;;;;-0.39;66.92;99471.61;105849;1254;74238;-26
2023/02/27 11:43:01;;;;;;;6.70;3.40;;;;;;;-0.48;67.78;99477.52;105563;1255;61244;-26
2023/02/27 11:45:38;;;;;;;33.60;21.20;;;;;;;-0.66;68.34;99482.45;105531;1254;61900;-26
2023/02/27 11:48:32;;;;;;;20.20;13.70;;;;;;;-0.97;68.92;99479.38;105512;1254;74509;-26
2023/02/27 11:51:09;;;;;;;27.90;16.00;;;;;;;-1.07;69.05;99479.30;105568;1260;75174;-26
2023/02/27 11:54:00;;;;;;;7.30;4.40;;;;;;;-1.00;69.41;99486.30;105545;1254;74380;-26
2023/02/27 11:57:23;;;;;;;25.90;21.50;;;;;;;-0.94;70.06;99487.33;105752;1254;61373;-26
2023/02/27 11:59:54;;;;;;;16.30;11.50;;;;;;;-1.11;69.90;99487.94;105076;1264;62157;-26
2023/02/27 12:02:24;;;;;;;10.90;8.20;;;;;;;-1.24;69.52;99488.11;105790;1254;73794;-26
2023/02/27 12:05:02;;;;;;;6.00;3.40;;;;;;;-1.36;71.20;99488.23;105791;1256;76182;-26
2023/02/27 12:07:34;;;;;;;9.50;4.80;;;;;;;-0.98;71.06;99488.95;105721;1259;74269;-26
2023/02/27 12:10:06;;;;;;;12.70;5.70;;;;;;;-0.50;68.65;99485.41;105698;1254;61151;-26